Time;durP1;ratioP1;P1;durP2;ratioP2;P2;SDS_P1;SDS_P2;PMS_P1;PMS_P2;Temp;Humidity;BMP_temperature;BMP_pressure;BME280_temperature;BME280_humidity;BME280_pressure;Samples;Min_cycle;Max_cycle;Signal;HPM_P1;HPM_P2
2023/09/05 00:02:14;;;;;;;4.38;3.97;;;;;;;17.70;90.23;102090.50;5069854;28;20032;-76
2023/09/05 00:04:42;;;;;;;4.72;4.43;;;;;;;17.69;90.18;102078.19;5074662;28;20105;-76
2023/09/05 00:07:09;;;;;;;4.97;4.60;;;;;;;17.68;90.34;102079.09;5074671;28;20197;-76
2023/09/05 00:09:36;;;;;;;5.18;4.80;;;;;;;17.67;90.29;102077.41;5073901;28;20586;-76
2023/09/05 00:12:03;;;;;;;5.80;5.30;;;;;;;17.64;90.16;102069.59;5076278;28;20044;-76
2023/09/05 00:14:29;;;;;;;5.90;5.50;;;;;;;17.62;90.40;102071.47;5057771;28;20297;-76
2023/09/05 00:16:55;;;;;;;5.75;5.35;;;;;;;17.59;90.36;102072.50;5056473;28;20319;-76
2023/09/05 00:19:21;;;;;;;7.90;5.25;;;;;;;17.57;90.53;102070.84;5054065;28;20040;-76
2023/09/05 00:21:46;;;;;;;5.30;4.90;;;;;;;17.55;90.65;102072.72;5055070;28;20110;-76
2023/09/05 00:24:31;;;;;;;5.03;4.68;;;;;;;17.53;90.67;102064.84;5054685;28;20033;-76
2023/09/05 00:27:00;;;;;;;4.45;4.15;;;;;;;17.51;90.74;102064.06;5054731;28;20087;-76
2023/09/05 00:29:27;;;;;;;4.70;4.35;;;;;;;17.50;90.77;102057.09;5067369;28;20048;-76
2023/09/05 00:31:57;;;;;;;5.30;4.90;;;;;;;17.49;90.76;102059.81;5075697;28;20347;-76
2023/09/05 00:34:23;;;;;;;5.05;4.75;;;;;;;17.48;90.95;102066.88;5073703;28;20047;-76
2023/09/05 00:36:49;;;;;;;4.75;4.45;;;;;;;17.48;91.04;102060.72;5074167;28;20028;-76
2023/09/05 00:39:16;;;;;;;4.70;4.40;;;;;;;17.45;90.92;102056.44;5074043;28;20374;-76
2023/09/05 00:41:43;;;;;;;4.45;4.15;;;;;;;17.45;90.97;102059.09;5073575;28;20032;-76
2023/09/05 00:44:13;;;;;;;4.00;3.70;;;;;;;17.44;90.94;102052.94;5064824;28;20399;-76
2023/09/05 00:46:44;;;;;;;7.90;5.53;;;;;;;17.43;90.80;102058.31;5053342;28;20044;-76
2023/09/05 00:49:12;;;;;;;4.97;4.47;;;;;;;17.41;90.98;102052.25;5053924;28;20067;-76
2023/09/05 00:51:42;;;;;;;8.30;5.38;;;;;;;17.39;90.95;102047.03;5062118;28;20032;-76
2023/09/05 00:54:10;;;;;;;4.40;4.10;;;;;;;17.38;90.79;102047.09;5073464;28;20028;-76
2023/09/05 00:56:37;;;;;;;4.15;3.95;;;;;;;17.36;90.91;102047.16;5073131;28;20078;-76
2023/09/05 00:59:04;;;;;;;5.05;4.65;;;;;;;17.34;90.89;102042.91;5075245;28;20103;-76
2023/09/05 01:07:12;;;;;;;5.20;4.80;;;;;;;17.28;90.97;102059.91;5053249;28;20049;-73
2023/09/05 01:09:57;;;;;;;6.03;4.43;;;;;;;17.26;91.43;102052.06;5041535;28;20187;-73
2023/09/05 01:12:22;;;;;;;4.93;4.53;;;;;;;17.25;91.31;102044.22;5001860;28;20335;-73
2023/09/05 01:14:48;;;;;;;4.82;4.50;;;;;;;17.23;90.87;102043.44;5002099;28;20021;-73
2023/09/05 01:17:13;;;;;;;6.40;5.40;;;;;;;17.21;91.04;102035.56;5038765;28;20266;-73
2023/09/05 01:19:40;;;;;;;6.05;5.53;;;;;;;17.18;91.07;102034.84;5038131;28;20029;-73
2023/09/05 01:22:38;;;;;;;5.22;4.72;;;;;;;17.16;91.38;102027.00;5039423;28;20037;-73
2023/09/05 01:25:05;;;;;;;5.47;4.97;;;;;;;17.14;91.50;102031.50;5039644;28;20120;-73
2023/09/05 01:27:31;;;;;;;5.68;5.15;;;;;;;17.12;91.48;102024.56;5019635;28;20089;-73
2023/09/05 01:29:57;;;;;;;5.40;5.10;;;;;;;17.10;91.53;102023.78;5020024;28;20084;-73
2023/09/05 01:32:23;;;;;;;5.50;5.10;;;;;;;17.09;91.93;102020.28;5036566;28;20041;-73
2023/09/05 01:34:48;;;;;;;5.47;5.07;;;;;;;17.07;92.16;102030.09;5039948;28;20037;-73
2023/09/05 01:37:15;;;;;;;6.63;5.97;;;;;;;17.05;92.15;102022.22;5023539;28;20109;-73
2023/09/05 01:39:41;;;;;;;5.47;5.07;;;;;;;17.04;92.20;102025.78;5041657;28;20034;-73
2023/09/05 01:42:07;;;;;;;6.38;5.80;;;;;;;17.03;92.13;102021.44;5039357;28;20037;-73
2023/09/05 01:44:36;;;;;;;5.20;4.80;;;;;;;17.01;92.19;102018.03;5039717;28;20097;-73
2023/09/05 01:47:02;;;;;;;4.63;4.32;;;;;;;17.00;92.31;102015.44;5039135;28;20044;-73
2023/09/05 01:49:27;;;;;;;5.00;4.70;;;;;;;16.99;91.84;102017.25;5038599;28;20087;-73
2023/09/05 01:51:53;;;;;;;4.03;3.72;;;;;;;16.98;92.12;102018.16;5039462;28;20044;-73
2023/09/05 01:54:18;;;;;;;4.57;4.28;;;;;;;16.97;91.94;102019.09;5038900;28;20331;-73
2023/09/05 01:56:44;;;;;;;4.35;4.05;;;;;;;16.95;91.95;102022.75;5029805;28;20313;-73
2023/09/05 01:59:09;;;;;;;6.72;5.72;;;;;;;16.94;92.22;102021.06;5019702;28;20037;-73
2023/09/05 02:01:35;;;;;;;4.45;4.15;;;;;;;16.92;92.34;102018.47;5019160;28;20038;-73
2023/09/05 02:04:00;;;;;;;5.22;4.82;;;;;;;16.91;92.20;102019.38;5019638;28;20061;-73
2023/09/05 02:06:26;;;;;;;4.93;4.60;;;;;;;16.89;92.20;102013.31;5027690;28;20045;-73
2023/09/05 02:08:51;;;;;;;5.47;4.85;;;;;;;16.86;92.42;102006.41;5039194;28;20043;-73
2023/09/05 02:11:17;;;;;;;4.30;4.00;;;;;;;16.85;92.43;102004.66;5038560;28;20037;-73
2023/09/05 02:13:42;;;;;;;4.55;4.25;;;;;;;16.84;92.33;102004.75;5039496;28;20060;-73
2023/09/05 02:16:07;;;;;;;7.43;4.97;;;;;;;16.83;92.47;101998.59;5039155;28;20096;-73
2023/09/05 02:18:33;;;;;;;4.63;4.32;;;;;;;16.80;92.51;101998.72;5038933;28;20120;-73
2023/09/05 02:21:00;;;;;;;4.82;3.92;;;;;;;16.80;92.50;101992.56;5039017;28;20254;-73
2023/09/05 02:23:26;;;;;;;5.28;4.82;;;;;;;16.79;92.57;101985.56;5038888;28;20593;-73
2023/09/05 02:25:59;;;;;;;4.43;4.13;;;;;;;16.78;92.63;101990.00;5039125;28;20037;-73
2023/09/05 02:28:24;;;;;;;4.60;4.20;;;;;;;16.77;92.64;101985.66;5038600;28;20417;-73
2023/09/05 02:30:50;;;;;;;5.15;4.80;;;;;;;16.76;92.71;101985.72;5039324;28;20033;-73
2023/09/05 02:33:16;;;;;;;5.38;4.18;;;;;;;16.74;92.75;101983.16;5025056;28;20048;-73
2023/09/05 02:35:42;;;;;;;4.90;4.40;;;;;;;16.74;92.98;101977.00;5042571;28;20033;-73
2023/09/05 02:38:07;;;;;;;6.30;5.80;;;;;;;16.72;92.76;101977.09;5042682;28;20033;-73
2023/09/05 02:40:33;;;;;;;6.45;5.85;;;;;;;16.71;92.78;101975.34;5024287;28;20331;-73
2023/09/05 02:42:58;;;;;;;5.75;5.25;;;;;;;16.71;92.94;101978.00;5042695;28;20418;-73
2023/09/05 02:45:23;;;;;;;7.10;4.25;;;;;;;16.69;92.87;101974.56;5041991;28;20235;-73
2023/09/05 02:47:49;;;;;;;5.28;4.47;;;;;;;16.68;92.76;101976.38;5042393;28;20037;-73
2023/09/05 02:50:15;;;;;;;5.85;5.35;;;;;;;16.68;92.75;101988.72;5042646;28;20044;-73
2023/09/05 02:52:40;;;;;;;5.60;5.20;;;;;;;16.67;92.96;101981.72;5042176;28;20033;-73
2023/09/05 02:55:06;;;;;;;5.55;5.05;;;;;;;16.68;93.12;101991.34;5041636;28;20037;-74
2023/09/05 02:57:31;;;;;;;5.35;4.95;;;;;;;16.66;93.03;101988.81;5037704;28;20386;-75
2023/09/05 02:59:56;;;;;;;5.07;4.63;;;;;;;16.65;93.36;101992.38;5038100;28;20037;-75
2023/09/05 03:02:23;;;;;;;5.00;4.70;;;;;;;16.65;93.60;102002.97;5037500;28;20331;-75
2023/09/05 03:04:55;;;;;;;5.95;5.45;;;;;;;16.65;93.92;101992.38;5037432;28;20347;-75
2023/09/05 03:07:21;;;;;;;5.80;5.30;;;;;;;16.64;94.16;101985.34;5036650;28;20053;-75
2023/09/05 03:09:50;;;;;;;5.63;5.22;;;;;;;16.63;94.21;101986.31;5037896;28;20033;-75
2023/09/05 03:12:15;;;;;;;;;;;;;;;16.61;94.17;101985.53;5037657;28;20074;-75
2023/09/05 03:14:41;;;;;;;5.88;5.38;;;;;;;16.60;94.28;101983.81;5036582;28;20154;-75
2023/09/05 03:17:09;;;;;;;5.60;5.20;;;;;;;16.58;94.61;101977.72;5037126;28;20037;-75
2023/09/05 03:19:34;;;;;;;5.93;5.53;;;;;;;16.57;94.51;101980.44;5036630;28;20040;-75
2023/09/05 03:22:00;;;;;;;6.63;6.15;;;;;;;16.55;94.66;101969.94;5037648;28;20080;-75
2023/09/05 03:24:26;;;;;;;13.85;6.22;;;;;;;16.54;94.80;101967.41;5036656;28;20041;-75
2023/09/05 03:26:51;;;;;;;6.18;5.68;;;;;;;16.52;94.75;101970.09;5037167;28;20327;-75
2023/09/05 03:29:16;;;;;;;7.07;6.57;;;;;;;16.50;94.61;101969.31;5036585;28;20040;-75
2023/09/05 03:31:43;;;;;;;7.03;6.43;;;;;;;16.50;94.78;101969.31;5036991;28;20398;-75
2023/09/05 03:34:09;;;;;;;6.88;6.28;;;;;;;16.48;95.01;101964.09;5036788;28;20036;-75
2023/09/05 03:36:35;;;;;;;7.03;6.43;;;;;;;16.46;94.98;101965.97;5036869;28;20033;-75
2023/09/05 03:39:01;;;;;;;7.28;6.68;;;;;;;16.46;95.02;101962.44;5036387;28;20037;-75
2023/09/05 03:41:26;;;;;;;6.85;6.25;;;;;;;16.43;94.96;101955.53;5035952;28;20075;-75
2023/09/05 03:43:52;;;;;;;7.20;6.50;;;;;;;16.43;95.06;101962.63;5035560;28;20048;-75
2023/09/05 03:46:17;;;;;;;9.02;6.22;;;;;;;16.40;94.87;101954.81;5036087;28;20037;-75
2023/09/05 03:48:42;;;;;;;7.35;6.60;;;;;;;16.37;94.95;101952.31;5036452;28;20369;-75
2023/09/05 03:51:08;;;;;;;7.13;6.53;;;;;;;16.34;95.06;101949.84;5036342;28;20116;-75
2023/09/05 03:53:33;;;;;;;7.55;6.68;;;;;;;16.31;94.96;101950.81;5036317;28;20029;-75
2023/09/05 03:55:59;;;;;;;9.10;6.63;;;;;;;16.29;95.12;101947.41;5018718;28;20041;-75
2023/09/05 03:58:24;;;;;;;5.78;5.28;;;;;;;16.27;95.19;101952.75;5035712;28;20324;-75
2023/09/05 04:00:50;;;;;;;6.70;6.20;;;;;;;16.25;95.32;101938.75;5036716;28;20037;-75
2023/09/05 04:03:15;;;;;;;6.85;5.57;;;;;;;16.27;94.60;101952.75;5036119;28;20104;-75
2023/09/05 04:05:41;;;;;;;6.50;6.00;;;;;;;16.26;94.76;101945.75;5036090;28;20098;-75
2023/09/05 04:08:08;;;;;;;7.22;5.63;;;;;;;16.27;94.50;101946.63;5036269;28;20281;-75
2023/09/05 04:10:34;;;;;;;6.25;5.75;;;;;;;16.26;94.48;101944.88;5036066;28;20037;-75
2023/09/05 04:13:00;;;;;;;6.80;6.30;;;;;;;16.25;94.72;101945.84;5036027;28;20064;-75
2023/09/05 04:15:25;;;;;;;6.40;5.93;;;;;;;16.23;94.91;101945.91;5035847;28;20037;-75
2023/09/05 04:17:51;;;;;;;6.15;5.75;;;;;;;16.22;94.96;101940.69;5018288;28;20049;-75
2023/09/05 04:20:17;;;;;;;6.32;5.82;;;;;;;16.22;94.96;101938.03;5035868;28;20036;-75
2023/09/05 04:22:42;;;;;;;6.05;5.65;;;;;;;16.21;94.60;101933.66;5036311;28;20072;-75
2023/09/05 04:25:08;;;;;;;6.07;5.68;;;;;;;16.20;94.69;101938.09;5035583;28;20091;-75
2023/09/05 04:27:34;;;;;;;8.85;6.28;;;;;;;16.20;95.04;101940.75;5035365;28;20057;-75
2023/09/05 04:30:00;;;;;;;6.70;6.20;;;;;;;16.19;95.27;101941.69;5035939;28;20213;-75
2023/09/05 04:32:30;;;;;;;6.90;6.35;;;;;;;16.18;95.17;101942.59;5035435;28;20052;-75
2023/09/05 04:35:01;;;;;;;7.30;6.68;;;;;;;16.15;95.31;101940.09;5036038;28;20251;-75
2023/09/05 04:37:27;;;;;;;7.05;6.35;;;;;;;16.15;95.37;101947.19;5034990;28;20037;-75
2023/09/05 04:39:53;;;;;;;6.85;6.35;;;;;;;16.14;95.45;101951.63;5035823;28;20063;-75
2023/09/05 04:42:18;;;;;;;7.07;6.47;;;;;;;16.13;95.56;101947.25;5035022;28;20031;-75
2023/09/05 04:44:44;;;;;;;6.50;6.00;;;;;;;16.11;95.67;101955.25;5035493;28;20354;-75
2023/09/05 04:47:21;;;;;;;6.93;6.43;;;;;;;16.10;95.73;101945.63;5035634;28;20029;-75
2023/09/05 04:49:52;;;;;;;6.47;6.07;;;;;;;16.09;95.68;101945.69;5035978;28;20079;-75
2023/09/05 04:52:21;;;;;;;10.00;7.13;;;;;;;16.07;95.55;101939.63;5034796;28;20261;-75
2023/09/05 04:54:47;;;;;;;6.95;6.43;;;;;;;16.07;95.69;101950.19;5035176;28;20588;-75
2023/09/05 04:57:16;;;;;;;7.63;6.95;;;;;;;16.06;95.86;101948.44;5035159;28;20040;-75
2023/09/05 04:59:47;;;;;;;6.60;6.07;;;;;;;16.05;95.82;101941.47;5035220;28;20119;-75
2023/09/05 05:02:13;;;;;;;6.93;6.10;;;;;;;16.03;96.04;101941.53;5035510;28;20083;-75
2023/09/05 05:04:40;;;;;;;6.45;5.95;;;;;;;16.03;96.03;101946.81;5033221;28;20060;-75
2023/09/05 05:07:07;;;;;;;6.25;5.75;;;;;;;16.02;95.93;101947.75;5035095;28;20164;-75
2023/09/05 05:09:32;;;;;;;6.53;6.03;;;;;;;16.03;95.70;101951.25;5034488;28;20060;-75
2023/09/05 05:11:59;;;;;;;7.43;5.50;;;;;;;16.02;95.79;101946.88;5035003;28;20172;-75
2023/09/05 05:14:24;;;;;;;5.70;5.20;;;;;;;16.01;95.44;101950.44;5034396;28;20041;-75
2023/09/05 05:16:50;;;;;;;5.50;5.00;;;;;;;16.00;95.42;101946.94;5034657;28;20064;-75
2023/09/05 05:19:15;;;;;;;6.10;5.60;;;;;;;16.01;95.36;101942.53;5034803;28;20049;-75
2023/09/05 05:21:40;;;;;;;6.35;5.63;;;;;;;16.00;95.42;101943.47;5037319;28;20282;-75
2023/09/05 05:24:08;;;;;;;5.88;5.38;;;;;;;16.00;95.24;101949.59;5033465;28;20316;-75
2023/09/05 05:26:34;;;;;;;6.30;5.90;;;;;;;15.99;95.34;101947.03;5027940;28;20344;-75
2023/09/05 05:28:59;;;;;;;6.05;5.55;;;;;;;15.98;94.92;101945.31;5028059;28;20045;-75
2023/09/05 05:31:26;;;;;;;5.82;5.32;;;;;;;15.99;95.45;101947.03;5036118;28;20033;-75
2023/09/05 05:33:52;;;;;;;5.60;5.10;;;;;;;15.99;95.26;101947.03;5034297;28;20029;-75
2023/09/05 05:36:18;;;;;;;5.22;4.88;;;;;;;15.98;95.31;101950.59;5033888;28;20036;-75
2023/09/05 05:38:44;;;;;;;5.60;5.10;;;;;;;15.98;95.34;101950.59;5033897;28;20060;-75
2023/09/05 05:41:09;;;;;;;6.07;5.47;;;;;;;15.97;95.60;101949.75;5034539;28;20033;-75
2023/09/05 05:43:35;;;;;;;6.40;5.80;;;;;;;15.99;95.43;101957.59;5033573;28;20262;-75
2023/09/05 05:46:01;;;;;;;5.40;5.00;;;;;;;15.98;95.48;101959.38;5034249;28;20331;-75
2023/09/05 05:48:26;;;;;;;5.88;5.38;;;;;;;15.98;95.78;101959.38;5032773;28;20115;-75
2023/09/05 05:50:52;;;;;;;5.70;5.22;;;;;;;15.99;95.82;101966.41;5034028;28;20099;-74
2023/09/05 05:53:20;;;;;;;5.53;5.07;;;;;;;15.99;95.88;101962.88;5033467;28;20040;-75
2023/09/05 05:55:46;;;;;;;9.40;5.20;;;;;;;15.99;96.07;101957.59;5033435;28;20040;-75
2023/09/05 05:58:13;;;;;;;5.00;4.70;;;;;;;16.00;95.96;101960.16;5034442;28;20532;-75
2023/09/05 06:00:50;;;;;;;4.32;4.03;;;;;;;16.01;95.88;101958.38;5030517;28;20206;-75
2023/09/05 06:03:18;;;;;;;6.50;5.68;;;;;;;16.02;95.72;101960.09;5029184;28;20213;-75
2023/09/05 06:05:48;;;;;;;5.90;5.50;;;;;;;16.02;95.84;101968.88;5032499;28;20101;-75
2023/09/05 06:08:14;;;;;;;5.85;5.22;;;;;;;16.03;95.80;101964.47;5037782;28;20037;-75
2023/09/05 06:10:39;;;;;;;6.43;5.82;;;;;;;16.01;96.15;101964.53;5037145;28;20362;-75
2023/09/05 06:13:05;;;;;;;6.03;5.55;;;;;;;16.03;96.04;101956.53;5037169;28;20037;-75
2023/09/05 06:15:34;;;;;;;5.50;5.03;;;;;;;16.03;96.09;101953.91;5036214;28;20497;-75
2023/09/05 06:17:59;;;;;;;;;;;;;;;16.03;96.18;101954.75;5030418;28;20547;-75
2023/09/05 06:20:25;;;;;;;6.18;4.63;;;;;;;16.05;96.17;101954.69;5030673;28;19917;-75
2023/09/05 06:22:50;;;;;;;5.55;5.05;;;;;;;16.06;96.03;101956.38;5025624;28;20113;-75
2023/09/05 06:25:16;;;;;;;5.05;4.65;;;;;;;16.06;96.13;101959.03;5035266;28;20039;-75
2023/09/05 06:27:43;;;;;;;5.63;5.10;;;;;;;16.07;96.08;101956.31;5035984;28;20080;-75
2023/09/05 06:30:12;;;;;;;5.55;5.05;;;;;;;16.10;96.16;101960.63;5038211;28;20037;-75
2023/09/05 06:32:37;;;;;;;5.72;4.75;;;;;;;16.10;96.13;101963.25;5035781;28;20037;-75
2023/09/05 06:35:05;;;;;;;5.32;4.90;;;;;;;16.10;96.05;101955.34;5033574;28;20044;-75
2023/09/05 06:37:31;;;;;;;6.63;4.72;;;;;;;16.11;96.25;101957.03;5034500;28;20090;-75
2023/09/05 06:39:56;;;;;;;5.20;4.78;;;;;;;16.13;95.97;101957.81;5034381;28;20045;-75
2023/09/05 06:42:23;;;;;;;8.73;5.32;;;;;;;16.15;96.42;101952.47;5031029;28;20029;-75
2023/09/05 06:44:48;;;;;;;5.05;4.30;;;;;;;16.17;96.04;101953.25;5033633;28;20033;-75
2023/09/05 06:47:14;;;;;;;9.73;4.68;;;;;;;16.19;96.20;101956.66;5036024;28;20028;-75
2023/09/05 06:49:39;;;;;;;4.88;4.57;;;;;;;16.21;96.26;101946.88;5035344;28;20347;-75
2023/09/05 06:52:05;;;;;;;7.10;4.93;;;;;;;16.22;96.02;101956.53;5034592;28;20204;-75
2023/09/05 06:54:31;;;;;;;5.85;4.40;;;;;;;16.22;95.91;101960.03;5035610;28;20101;-75
2023/09/05 06:56:56;;;;;;;5.07;4.57;;;;;;;16.25;95.84;101953.75;5033929;28;20025;-75
2023/09/05 06:59:22;;;;;;;5.28;4.78;;;;;;;16.26;96.01;101947.53;5031721;28;20037;-75
2023/09/05 07:01:47;;;;;;;7.90;4.45;;;;;;;16.28;95.92;101958.88;5032327;28;20398;-75
2023/09/05 07:04:14;;;;;;;4.93;4.53;;;;;;;16.29;95.71;101957.97;5033855;28;20218;-75
2023/09/05 07:06:40;;;;;;;4.68;4.28;;;;;;;16.30;95.79;101955.25;5035144;28;20080;-75
2023/09/05 07:09:06;;;;;;;5.10;4.22;;;;;;;16.31;96.03;101956.09;5036132;28;20370;-75
2023/09/05 07:11:34;;;;;;;5.30;4.45;;;;;;;16.34;96.08;101958.63;5034801;28;20026;-75
2023/09/05 07:14:00;;;;;;;5.47;4.97;;;;;;;16.38;96.03;101964.63;5037768;28;20044;-75
2023/09/05 07:16:26;;;;;;;4.68;4.18;;;;;;;16.42;96.05;101955.59;5038067;28;20033;-75
2023/09/05 07:18:51;;;;;;;5.38;4.05;;;;;;;16.45;95.94;101958.94;5034396;28;20210;-75
2023/09/05 07:21:17;;;;;;;6.60;4.03;;;;;;;16.48;95.72;101963.22;5034842;28;20044;-75
2023/09/05 07:23:43;;;;;;;4.22;3.83;;;;;;;16.50;95.68;101956.94;5034725;28;20017;-75
2023/09/05 07:26:08;;;;;;;3.80;3.50;;;;;;;16.53;95.61;101963.88;5034741;28;20321;-75
2023/09/05 07:28:34;;;;;;;4.68;4.28;;;;;;;16.55;95.63;101961.16;5034975;28;20328;-75
2023/09/05 07:31:03;;;;;;;6.53;3.90;;;;;;;16.56;95.71;101969.03;5033208;28;20108;-75
2023/09/05 07:33:28;;;;;;;;;;;;;;;16.57;95.51;101962.81;5034162;28;20112;-75
2023/09/05 07:35:53;;;;;;;3.92;3.55;;;;;;;16.59;95.41;101960.94;5036136;28;19913;-75
2023/09/05 07:38:21;;;;;;;3.85;3.55;;;;;;;16.61;95.43;101961.72;5035065;28;20221;-75
2023/09/05 07:41:09;;;;;;;3.53;3.22;;;;;;;16.62;95.19;101963.41;5035865;28;20098;-75
2023/09/05 07:43:34;;;;;;;4.00;3.70;;;;;;;16.64;95.44;101964.19;5034433;28;20366;-75
2023/09/05 07:46:01;;;;;;;5.90;4.10;;;;;;;16.67;95.39;101960.56;5024987;28;20025;-75
2023/09/05 07:48:26;;;;;;;6.22;3.30;;;;;;;16.69;95.25;101956.91;5035026;28;20068;-75
2023/09/05 07:51:00;;;;;;;3.83;3.40;;;;;;;16.73;95.29;101954.13;5036018;28;20037;-75
2023/09/05 07:53:25;;;;;;;4.15;3.78;;;;;;;16.75;95.24;101941.66;5034737;28;20231;-75
2023/09/05 07:55:50;;;;;;;10.07;3.60;;;;;;;16.77;95.47;101945.09;5033466;28;20070;-75
2023/09/05 07:58:16;;;;;;;4.95;3.30;;;;;;;16.78;95.46;101939.72;5025327;28;20352;-75
2023/09/05 08:00:42;;;;;;;3.58;3.28;;;;;;;16.82;95.25;101945.72;5033683;28;20328;-75
2023/09/05 08:03:08;;;;;;;3.10;2.90;;;;;;;16.83;95.31;101940.41;5035956;28;20037;-75
2023/09/05 08:05:34;;;;;;;11.45;4.13;;;;;;;16.87;95.35;101939.31;5035945;28;20057;-75
2023/09/05 08:07:59;;;;;;;5.38;3.95;;;;;;;16.91;95.40;101944.47;5035215;28;20228;-75
2023/09/05 08:10:25;;;;;;;3.08;2.85;;;;;;;16.95;95.18;101940.72;5035044;28;20029;-75
2023/09/05 08:12:50;;;;;;;4.38;3.70;;;;;;;16.99;95.44;101940.50;5035448;28;20367;-75
2023/09/05 08:15:16;;;;;;;5.75;3.70;;;;;;;17.02;95.08;101942.13;5035345;28;20037;-75
2023/09/05 08:17:41;;;;;;;7.50;3.50;;;;;;;17.05;94.87;101945.47;5035318;28;20104;-75
2023/09/05 08:20:07;;;;;;;4.20;3.80;;;;;;;17.09;94.84;101938.25;5035770;28;20032;-75
2023/09/05 08:22:32;;;;;;;3.95;3.65;;;;;;;17.13;94.94;101946.88;5034417;28;20032;-75
2023/09/05 08:24:59;;;;;;;3.70;3.40;;;;;;;17.17;94.51;101944.00;5035752;28;20037;-75
2023/09/05 08:27:28;;;;;;;3.92;3.58;;;;;;;17.21;94.63;101948.22;5034249;28;20033;-75
2023/09/05 08:29:55;;;;;;;3.78;3.20;;;;;;;17.23;94.18;101943.69;5033990;28;20247;-75
2023/09/05 08:32:21;;;;;;;4.13;3.30;;;;;;;17.25;94.20;101951.56;5034576;28;20043;-75
2023/09/05 08:34:46;;;;;;;5.78;2.92;;;;;;;17.25;94.11;101944.47;5033449;28;20454;-75
2023/09/05 08:37:11;;;;;;;3.88;3.30;;;;;;;17.28;93.99;101951.38;5033930;28;20026;-75
2023/09/05 08:39:37;;;;;;;3.30;3.00;;;;;;;17.30;94.15;101949.53;5033288;28;20398;-75
2023/09/05 08:42:06;;;;;;;4.63;3.33;;;;;;;17.31;94.21;101956.53;5034701;28;20378;-75
2023/09/05 08:44:31;;;;;;;;;;;;;;;17.37;94.49;101956.22;5033585;28;20048;-75
2023/09/05 08:46:58;;;;;;;6.57;4.30;;;;;;;17.43;94.58;101961.19;5032947;28;19921;-75
2023/09/05 08:49:24;;;;;;;5.28;3.70;;;;;;;17.51;94.49;101962.59;5033572;28;20033;-75
2023/09/05 08:51:54;;;;;;;3.30;3.03;;;;;;;17.54;93.97;101962.44;5034127;28;20083;-75
2023/09/05 08:54:21;;;;;;;2.97;2.67;;;;;;;17.57;94.20;101968.44;5034544;28;20425;-75
2023/09/05 08:56:47;;;;;;;5.43;3.60;;;;;;;17.64;94.05;101959.22;5034694;28;20459;-75
2023/09/05 08:59:13;;;;;;;3.00;2.80;;;;;;;17.70;93.97;101970.41;5034449;28;20363;-75
2023/09/05 09:01:41;;;;;;;3.33;2.83;;;;;;;17.75;94.12;101971.03;5034221;28;20037;-75
2023/09/05 09:04:08;;;;;;;4.03;3.65;;;;;;;17.78;93.54;101974.38;5034517;28;20029;-75
2023/09/05 09:06:38;;;;;;;4.57;3.20;;;;;;;17.81;93.47;101981.31;5031904;28;20199;-75
2023/09/05 09:09:03;;;;;;;3.33;3.08;;;;;;;17.82;93.33;101975.91;5034001;28;20029;-75
2023/09/05 09:11:29;;;;;;;3.30;2.95;;;;;;;17.85;93.44;101972.28;5033890;28;20099;-75
2023/09/05 09:13:59;;;;;;;3.67;3.38;;;;;;;17.90;93.63;101977.34;5034627;28;20033;-75
2023/09/05 09:16:25;;;;;;;6.80;3.10;;;;;;;17.91;93.44;101979.91;5034107;28;20048;-75
2023/09/05 09:19:02;;;;;;;7.90;3.13;;;;;;;17.94;93.56;101981.56;5016485;28;20038;-75
2023/09/05 09:21:29;;;;;;;3.75;2.90;;;;;;;17.96;93.39;101975.22;5033767;28;20102;-75
2023/09/05 09:24:08;;;;;;;5.22;3.22;;;;;;;17.99;93.44;101976.84;5033707;28;20033;-75
2023/09/05 09:26:33;;;;;;;3.53;3.22;;;;;;;18.04;93.71;101974.81;5024227;28;20040;-75
2023/09/05 09:29:00;;;;;;;2.92;2.72;;;;;;;18.09;93.99;101978.06;5031447;28;20033;-75
2023/09/05 09:31:26;;;;;;;4.35;3.40;;;;;;;18.17;93.97;101967.03;5031202;28;20033;-75
2023/09/05 09:33:57;;;;;;;3.35;3.15;;;;;;;18.22;93.88;101976.44;5033732;28;20063;-75
2023/09/05 09:36:22;;;;;;;3.80;3.17;;;;;;;18.27;93.81;101973.56;5031835;28;20041;-75
2023/09/05 09:38:47;;;;;;;3.88;3.20;;;;;;;18.30;94.28;101962.78;5032249;28;20044;-75
2023/09/05 09:41:14;;;;;;;3.42;2.92;;;;;;;18.41;94.43;101959.53;5031923;28;20201;-75
2023/09/05 09:43:40;;;;;;;3.70;3.40;;;;;;;18.48;94.43;101952.94;5032647;28;20049;-75
2023/09/05 09:46:08;;;;;;;2.88;2.67;;;;;;;18.54;94.35;101949.94;5033373;28;20449;-75
2023/09/05 09:48:35;;;;;;;4.30;3.95;;;;;;;18.60;94.23;101944.28;5032450;28;20029;-75
2023/09/05 09:51:04;;;;;;;6.43;2.20;;;;;;;18.68;93.86;101935.00;5032562;28;20317;-75
2023/09/05 09:53:34;;;;;;;3.42;3.13;;;;;;;18.79;94.15;101937.91;5032469;28;20037;-75
2023/09/05 09:56:04;;;;;;;3.13;2.92;;;;;;;18.90;93.75;101937.31;5032793;28;20108;-75
2023/09/05 09:58:30;;;;;;;3.95;3.65;;;;;;;18.97;93.62;101938.66;5030163;28;20041;-75
2023/09/05 10:00:58;;;;;;;4.57;3.35;;;;;;;19.08;93.08;101946.88;5032514;28;20040;-75
2023/09/05 10:03:24;;;;;;;3.55;3.22;;;;;;;19.14;92.62;101937.69;5031834;28;20025;-75
2023/09/05 10:05:51;;;;;;;3.47;3.17;;;;;;;19.21;92.69;101933.72;5033225;28;20076;-75
2023/09/05 10:08:17;;;;;;;4.30;3.47;;;;;;;19.26;92.21;101933.44;5032961;28;20026;-75
2023/09/05 10:10:43;;;;;;;2.95;2.75;;;;;;;19.33;92.21;101922.34;5036680;28;20040;-75
2023/09/05 10:13:10;;;;;;;3.05;2.85;;;;;;;19.41;91.99;101923.66;5034472;28;20034;-75
2023/09/05 10:15:43;;;;;;;3.47;3.17;;;;;;;19.48;92.05;101922.34;5033734;28;20220;-75
2023/09/05 10:18:09;;;;;;;5.13;3.28;;;;;;;19.62;91.88;101913.53;5034275;28;20037;-75
2023/09/05 10:20:37;;;;;;;3.63;3.40;;;;;;;19.80;90.04;101912.44;5033614;28;20063;-75
2023/09/05 10:23:05;;;;;;;2.92;2.63;;;;;;;19.94;88.69;101919.53;5034218;28;20263;-75
2023/09/05 10:25:31;;;;;;;3.97;3.10;;;;;;;20.05;88.43;101919.72;5032839;28;20025;-75
2023/09/05 10:27:57;;;;;;;3.03;2.83;;;;;;;20.17;88.19;101922.53;5033800;28;20035;-75
2023/09/05 10:30:22;;;;;;;3.20;2.90;;;;;;;20.32;87.24;101924.22;5033178;28;20224;-75
2023/09/05 10:32:48;;;;;;;8.60;3.67;;;;;;;20.40;86.34;101919.25;5033311;28;20279;-75
2023/09/05 10:35:18;;;;;;;3.33;3.05;;;;;;;20.46;86.59;101910.00;5034278;28;20021;-75
2023/09/05 10:37:50;;;;;;;5.10;3.00;;;;;;;20.52;86.88;101906.94;5034448;28;20375;-75
2023/09/05 10:40:16;;;;;;;3.95;3.35;;;;;;;20.61;86.76;101909.03;5033353;28;20033;-75
2023/09/05 10:42:50;;;;;;;4.43;4.03;;;;;;;20.67;86.40;101907.78;5033558;28;20057;-75
2023/09/05 10:45:16;;;;;;;3.50;3.20;;;;;;;20.75;85.93;101912.56;5033841;28;20112;-75
2023/09/05 10:47:42;;;;;;;3.35;3.05;;;;;;;20.83;85.86;101911.13;5035634;28;20033;-75
2023/09/05 10:50:09;;;;;;;3.22;2.92;;;;;;;20.89;85.13;101910.69;5035351;28;20060;-76
2023/09/05 10:52:35;;;;;;;5.03;3.30;;;;;;;20.92;85.09;101904.31;5034949;28;20076;-75
2023/09/05 10:55:44;;;;;;;3.13;2.80;;;;;;;20.94;85.29;101899.75;5037770;28;20061;-75
2023/09/05 10:58:38;;;;;;;3.00;2.63;;;;;;;20.99;85.39;101907.41;5014433;28;20061;-75
2023/09/05 11:01:45;;;;;;;6.05;3.10;;;;;;;21.04;85.30;101905.28;5037636;28;20083;-75
2023/09/05 11:04:27;;;;;;;3.17;2.55;;;;;;;21.11;85.50;101901.25;5014462;28;20030;-75
2023/09/05 11:07:01;;;;;;;3.10;2.80;;;;;;;21.18;85.17;101897.19;4995074;28;20301;-75
2023/09/05 11:09:26;;;;;;;2.83;2.63;;;;;;;21.27;84.55;101906.38;5020523;28;20037;-75
2023/09/05 11:11:53;;;;;;;3.22;2.97;;;;;;;21.38;83.43;101901.16;5037498;28;20225;-75
2023/09/05 11:14:32;;;;;;;3.53;3.20;;;;;;;21.46;82.75;101908.63;5036863;28;20252;-75
2023/09/05 11:16:58;;;;;;;4.28;2.67;;;;;;;21.50;82.75;101893.28;5037056;28;20045;-75
2023/09/05 11:19:42;;;;;;;4.47;3.35;;;;;;;21.54;82.63;101900.97;5035970;28;20025;-75
2023/09/05 11:22:11;;;;;;;3.72;3.42;;;;;;;21.56;82.93;101898.19;5031561;28;20110;-75
2023/09/05 11:24:46;;;;;;;3.15;2.83;;;;;;;21.56;83.17;101892.88;5028157;28;20017;-75
2023/09/05 11:27:12;;;;;;;4.75;3.58;;;;;;;21.59;84.04;101897.97;5028242;28;20037;-75
2023/09/05 11:29:39;;;;;;;4.95;3.70;;;;;;;21.65;84.07;101893.06;5029253;28;20099;-76
2023/09/05 11:32:06;;;;;;;6.85;3.60;;;;;;;21.74;84.00;101894.22;5035693;28;20085;-75
2023/09/05 11:34:33;;;;;;;6.90;3.30;;;;;;;21.84;83.39;101883.75;5036428;28;20137;-75